< < Back
Terminal Aerodrome Forecast


Current Version              Previous Versions:   1  2  3  4  5  6  7  8  9  

Terminal Aerodrome Forecast

116
FTUS44 KMOB 301120
TAFMOB
TAF
KMOB 301120Z 3012/3112 27003KT P6SM SKC
     FM301500 34005KT P6SM FEW250
     FM302100 23006KT P6SM VCTS FEW030CB SCT250
     FM310100 VRB03KT P6SM SKC=

Latest METAR

167
SAUS80 KWBC 302000
MTRMOB
METAR KMOB 301956Z 20009KT 10SM SCT065 BKN100 31/22 A2997 RMK AO2 WSHFT
1932 SLP147 T03060217


USA.gov is the U.S. government's official web portal to all federal, state and local government web resources and services.